sensor_id;sensor_type;location;lat;lon;timestamp;temperature;humidity
32660;DHT22;19064;47.912;12.308;2022-11-15T00:01:07;4.80;99.90
32660;DHT22;19064;47.912;12.308;2022-11-15T00:03:35;4.70;99.90
32660;DHT22;19064;47.912;12.308;2022-11-15T00:06:04;4.80;99.90
32660;DHT22;19064;47.912;12.308;2022-11-15T00:08:32;4.80;99.90
32660;DHT22;19064;47.912;12.308;2022-11-15T00:11:02;4.90;99.90
32660;DHT22;19064;47.912;12.308;2022-11-15T00:13:31;5.00;99.90
32660;DHT22;19064;47.912;12.308;2022-11-15T00:16:00;4.90;99.90
32660;DHT22;19064;47.912;12.308;2022-11-15T00:18:28;4.90;99.90
32660;DHT22;19064;47.912;12.308;2022-11-15T00:21:02;5.00;99.90
32660;DHT22;19064;47.912;12.308;2022-11-15T00:23:30;5.10;99.90
32660;DHT22;19064;47.912;12.308;2022-11-15T00:25:58;5.20;99.90
32660;DHT22;19064;47.912;12.308;2022-11-15T00:28:25;5.20;99.90
32660;DHT22;19064;47.912;12.308;2022-11-15T00:31:00;5.30;99.90
32660;DHT22;19064;47.912;12.308;2022-11-15T00:33:27;5.30;99.90
32660;DHT22;19064;47.912;12.308;2022-11-15T00:36:00;5.20;99.90
32660;DHT22;19064;47.912;12.308;2022-11-15T00:38:31;5.20;99.90
32660;DHT22;19064;47.912;12.308;2022-11-15T00:41:00;5.10;99.90
32660;DHT22;19064;47.912;12.308;2022-11-15T00:43:29;5.00;99.90
32660;DHT22;19064;47.912;12.308;2022-11-15T00:45:58;5.10;99.90
32660;DHT22;19064;47.912;12.308;2022-11-15T00:48:25;5.10;99.90
32660;DHT22;19064;47.912;12.308;2022-11-15T00:50:52;5.10;99.90
32660;DHT22;19064;47.912;12.308;2022-11-15T00:53:20;5.00;99.90
32660;DHT22;19064;47.912;12.308;2022-11-15T00:55:48;4.90;99.90
32660;DHT22;19064;47.912;12.308;2022-11-15T00:58:16;4.80;99.90
32660;DHT22;19064;47.912;12.308;2022-11-15T01:00:44;4.70;99.90
32660;DHT22;19064;47.912;12.308;2022-11-15T01:03:13;4.70;99.90
32660;DHT22;19064;47.912;12.308;2022-11-15T01:05:41;4.60;99.90
32660;DHT22;19064;47.912;12.308;2022-11-15T01:08:12;4.60;99.90
32660;DHT22;19064;47.912;12.308;2022-11-15T01:10:40;4.50;99.90
32660;DHT22;19064;47.912;12.308;2022-11-15T01:13:09;4.50;99.90
32660;DHT22;19064;47.912;12.308;2022-11-15T01:15:39;4.70;99.90
32660;DHT22;19064;47.912;12.308;2022-11-15T01:18:06;4.90;99.90
32660;DHT22;19064;47.912;12.308;2022-11-15T01:20:39;5.10;99.90
32660;DHT22;19064;47.912;12.308;2022-11-15T01:23:07;5.20;99.90
32660;DHT22;19064;47.912;12.308;2022-11-15T01:25:35;5.20;99.90
32660;DHT22;19064;47.912;12.308;2022-11-15T01:28:02;5.30;99.90
32660;DHT22;19064;47.912;12.308;2022-11-15T01:30:29;5.30;99.90
32660;DHT22;19064;47.912;12.308;2022-11-15T01:32:56;5.10;99.90
32660;DHT22;19064;47.912;12.308;2022-11-15T01:35:25;4.80;99.90
32660;DHT22;19064;47.912;12.308;2022-11-15T01:37:54;4.60;99.90
32660;DHT22;19064;47.912;12.308;2022-11-15T01:40:22;4.60;99.90
32660;DHT22;19064;47.912;12.308;2022-11-15T01:42:50;4.60;99.90
32660;DHT22;19064;47.912;12.308;2022-11-15T01:45:17;4.70;99.90
32660;DHT22;19064;47.912;12.308;2022-11-15T01:47:48;4.90;99.90
32660;DHT22;19064;47.912;12.308;2022-11-15T01:50:20;5.10;99.90
32660;DHT22;19064;47.912;12.308;2022-11-15T01:52:49;5.20;99.90
32660;DHT22;19064;47.912;12.308;2022-11-15T01:55:21;5.10;99.90
32660;DHT22;19064;47.912;12.308;2022-11-15T01:57:52;5.10;99.90
32660;DHT22;19064;47.912;12.308;2022-11-15T02:00:20;5.00;99.90
32660;DHT22;19064;47.912;12.308;2022-11-15T02:02:48;5.00;99.90
32660;DHT22;19064;47.912;12.308;2022-11-15T02:05:15;4.90;99.90
32660;DHT22;19064;47.912;12.308;2022-11-15T02:07:43;4.80;99.90
32660;DHT22;19064;47.912;12.308;2022-11-15T02:10:17;4.80;99.90
32660;DHT22;19064;47.912;12.308;2022-11-15T02:12:47;4.80;99.90
32660;DHT22;19064;47.912;12.308;2022-11-15T02:15:14;4.90;99.90
32660;DHT22;19064;47.912;12.308;2022-11-15T02:17:54;5.00;99.90
32660;DHT22;19064;47.912;12.308;2022-11-15T02:20:42;5.10;99.90
32660;DHT22;19064;47.912;12.308;2022-11-15T02:26:24;5.20;99.90
32660;DHT22;19064;47.912;12.308;2022-11-15T02:29:03;5.30;99.90
32660;DHT22;19064;47.912;12.308;2022-11-15T02:31:40;5.40;99.90
32660;DHT22;19064;47.912;12.308;2022-11-15T02:34:16;5.40;99.90
32660;DHT22;19064;47.912;12.308;2022-11-15T02:36:54;5.50;99.90
32660;DHT22;19064;47.912;12.308;2022-11-15T02:39:28;5.40;99.90
32660;DHT22;19064;47.912;12.308;2022-11-15T02:42:02;5.30;99.90
32660;DHT22;19064;47.912;12.308;2022-11-15T02:44:35;5.10;99.90
32660;DHT22;19064;47.912;12.308;2022-11-15T02:47:07;5.00;99.90
32660;DHT22;19064;47.912;12.308;2022-11-15T02:49:43;4.90;99.90
32660;DHT22;19064;47.912;12.308;2022-11-15T02:52:14;4.70;99.90
32660;DHT22;19064;47.912;12.308;2022-11-15T02:54:53;4.60;99.90
32660;DHT22;19064;47.912;12.308;2022-11-15T02:57:28;4.50;99.90
32660;DHT22;19064;47.912;12.308;2022-11-15T03:00:09;4.50;99.90
32660;DHT22;19064;47.912;12.308;2022-11-15T03:02:57;4.50;99.90
32660;DHT22;19064;47.912;12.308;2022-11-15T03:05:34;4.40;99.90
32660;DHT22;19064;47.912;12.308;2022-11-15T03:08:08;4.50;99.90
32660;DHT22;19064;47.912;12.308;2022-11-15T03:10:44;4.50;99.90
32660;DHT22;19064;47.912;12.308;2022-11-15T03:13:21;4.60;99.90
32660;DHT22;19064;47.912;12.308;2022-11-15T03:15:54;4.50;99.90
32660;DHT22;19064;47.912;12.308;2022-11-15T03:18:29;4.50;99.90
32660;DHT22;19064;47.912;12.308;2022-11-15T03:21:02;4.50;99.90
32660;DHT22;19064;47.912;12.308;2022-11-15T03:23:36;4.40;99.90
32660;DHT22;19064;47.912;12.308;2022-11-15T03:26:07;4.40;99.90
32660;DHT22;19064;47.912;12.308;2022-11-15T03:28:39;4.40;99.90
32660;DHT22;19064;47.912;12.308;2022-11-15T03:31:10;4.40;99.90
32660;DHT22;19064;47.912;12.308;2022-11-15T03:33:57;4.50;99.90
32660;DHT22;19064;47.912;12.308;2022-11-15T03:36:27;4.50;99.90
32660;DHT22;19064;47.912;12.308;2022-11-15T03:38:58;4.50;99.90
32660;DHT22;19064;47.912;12.308;2022-11-15T03:41:30;4.50;99.90
32660;DHT22;19064;47.912;12.308;2022-11-15T03:44:05;4.40;99.90
32660;DHT22;19064;47.912;12.308;2022-11-15T03:46:39;4.40;99.90
32660;DHT22;19064;47.912;12.308;2022-11-15T03:49:10;4.50;99.90
32660;DHT22;19064;47.912;12.308;2022-11-15T03:51:40;4.50;99.90
32660;DHT22;19064;47.912;12.308;2022-11-15T03:54:08;4.70;99.90
32660;DHT22;19064;47.912;12.308;2022-11-15T03:56:36;4.70;99.90
32660;DHT22;19064;47.912;12.308;2022-11-15T03:59:03;4.90;99.90
32660;DHT22;19064;47.912;12.308;2022-11-15T04:01:30;5.00;99.90
32660;DHT22;19064;47.912;12.308;2022-11-15T04:03:58;5.20;99.90
32660;DHT22;19064;47.912;12.308;2022-11-15T04:06:27;5.30;99.90
32660;DHT22;19064;47.912;12.308;2022-11-15T04:08:53;5.40;99.90
32660;DHT22;19064;47.912;12.308;2022-11-15T04:11:22;5.40;99.90
32660;DHT22;19064;47.912;12.308;2022-11-15T04:13:49;5.40;99.90
32660;DHT22;19064;47.912;12.308;2022-11-15T04:16:18;5.50;99.90
32660;DHT22;19064;47.912;12.308;2022-11-15T04:18:45;5.50;99.90
32660;DHT22;19064;47.912;12.308;2022-11-15T04:21:35;5.50;99.90
32660;DHT22;19064;47.912;12.308;2022-11-15T04:24:21;5.50;99.90
32660;DHT22;19064;47.912;12.308;2022-11-15T04:26:49;5.30;99.90
32660;DHT22;19064;47.912;12.308;2022-11-15T04:29:17;5.30;99.90
32660;DHT22;19064;47.912;12.308;2022-11-15T04:32:04;5.10;99.90
32660;DHT22;19064;47.912;12.308;2022-11-15T04:34:32;4.90;99.90
32660;DHT22;19064;47.912;12.308;2022-11-15T04:37:02;4.80;99.90
32660;DHT22;19064;47.912;12.308;2022-11-15T04:39:39;4.70;99.90
32660;DHT22;19064;47.912;12.308;2022-11-15T04:42:08;4.60;99.90
32660;DHT22;19064;47.912;12.308;2022-11-15T04:44:36;4.40;99.90
32660;DHT22;19064;47.912;12.308;2022-11-15T04:47:04;4.20;99.90
32660;DHT22;19064;47.912;12.308;2022-11-15T04:49:31;4.10;99.90
32660;DHT22;19064;47.912;12.308;2022-11-15T04:51:58;3.90;99.90
32660;DHT22;19064;47.912;12.308;2022-11-15T04:54:27;3.90;99.90
32660;DHT22;19064;47.912;12.308;2022-11-15T04:56:55;3.90;99.90
32660;DHT22;19064;47.912;12.308;2022-11-15T04:59:23;3.90;99.90
32660;DHT22;19064;47.912;12.308;2022-11-15T05:01:51;3.90;99.90
32660;DHT22;19064;47.912;12.308;2022-11-15T05:04:19;4.00;99.90
32660;DHT22;19064;47.912;12.308;2022-11-15T05:06:48;4.10;99.90
32660;DHT22;19064;47.912;12.308;2022-11-15T05:09:15;4.40;99.90
32660;DHT22;19064;47.912;12.308;2022-11-15T05:11:45;4.50;99.90
32660;DHT22;19064;47.912;12.308;2022-11-15T05:14:13;4.50;99.90
32660;DHT22;19064;47.912;12.308;2022-11-15T05:16:41;4.20;99.90
32660;DHT22;19064;47.912;12.308;2022-11-15T05:19:09;4.10;99.90
32660;DHT22;19064;47.912;12.308;2022-11-15T05:21:37;4.00;99.90
32660;DHT22;19064;47.912;12.308;2022-11-15T05:24:05;3.80;99.90
32660;DHT22;19064;47.912;12.308;2022-11-15T05:26:33;3.90;99.90
32660;DHT22;19064;47.912;12.308;2022-11-15T05:29:02;3.90;99.90
32660;DHT22;19064;47.912;12.308;2022-11-15T05:31:30;4.30;99.90
32660;DHT22;19064;47.912;12.308;2022-11-15T05:34:04;4.50;99.90
32660;DHT22;19064;47.912;12.308;2022-11-15T05:36:35;4.60;99.90
32660;DHT22;19064;47.912;12.308;2022-11-15T05:39:05;4.70;99.90
32660;DHT22;19064;47.912;12.308;2022-11-15T05:41:34;4.90;99.90
32660;DHT22;19064;47.912;12.308;2022-11-15T05:44:06;4.90;99.90
32660;DHT22;19064;47.912;12.308;2022-11-15T05:46:33;4.80;99.90
32660;DHT22;19064;47.912;12.308;2022-11-15T05:49:26;4.70;99.90
32660;DHT22;19064;47.912;12.308;2022-11-15T05:51:54;4.40;99.90
32660;DHT22;19064;47.912;12.308;2022-11-15T05:54:22;4.20;99.90
32660;DHT22;19064;47.912;12.308;2022-11-15T05:56:49;4.10;99.90
32660;DHT22;19064;47.912;12.308;2022-11-15T05:59:18;4.20;99.90
32660;DHT22;19064;47.912;12.308;2022-11-15T06:01:45;4.20;99.90
32660;DHT22;19064;47.912;12.308;2022-11-15T06:04:12;4.00;99.90
32660;DHT22;19064;47.912;12.308;2022-11-15T06:06:39;3.90;99.90
32660;DHT22;19064;47.912;12.308;2022-11-15T06:09:05;3.80;99.90
32660;DHT22;19064;47.912;12.308;2022-11-15T06:11:32;3.80;99.90
32660;DHT22;19064;47.912;12.308;2022-11-15T06:13:59;3.90;99.90
32660;DHT22;19064;47.912;12.308;2022-11-15T06:16:27;4.30;99.90
32660;DHT22;19064;47.912;12.308;2022-11-15T06:18:53;4.50;99.90
32660;DHT22;19064;47.912;12.308;2022-11-15T06:21:20;4.40;99.90
32660;DHT22;19064;47.912;12.308;2022-11-15T06:23:47;4.20;99.90
32660;DHT22;19064;47.912;12.308;2022-11-15T06:26:14;4.10;99.90
32660;DHT22;19064;47.912;12.308;2022-11-15T06:28:40;4.10;99.90
32660;DHT22;19064;47.912;12.308;2022-11-15T06:31:09;4.00;99.90
32660;DHT22;19064;47.912;12.308;2022-11-15T06:33:38;3.90;99.90
32660;DHT22;19064;47.912;12.308;2022-11-15T06:36:06;3.90;99.90
32660;DHT22;19064;47.912;12.308;2022-11-15T06:38:34;3.90;99.90
32660;DHT22;19064;47.912;12.308;2022-11-15T06:41:02;3.90;99.90
32660;DHT22;19064;47.912;12.308;2022-11-15T06:43:29;4.20;99.90
32660;DHT22;19064;47.912;12.308;2022-11-15T06:45:57;4.40;99.90
32660;DHT22;19064;47.912;12.308;2022-11-15T06:48:24;4.50;99.90
32660;DHT22;19064;47.912;12.308;2022-11-15T06:50:53;4.60;99.90
32660;DHT22;19064;47.912;12.308;2022-11-15T06:53:21;4.50;99.90
32660;DHT22;19064;47.912;12.308;2022-11-15T06:55:48;4.40;99.90
32660;DHT22;19064;47.912;12.308;2022-11-15T06:58:15;4.30;99.90
32660;DHT22;19064;47.912;12.308;2022-11-15T07:00:43;4.20;99.90
32660;DHT22;19064;47.912;12.308;2022-11-15T07:03:10;4.30;99.90
32660;DHT22;19064;47.912;12.308;2022-11-15T07:05:36;4.60;99.90
32660;DHT22;19064;47.912;12.308;2022-11-15T07:08:05;5.90;99.90
32660;DHT22;19064;47.912;12.308;2022-11-15T07:10:31;7.30;99.90
32660;DHT22;19064;47.912;12.308;2022-11-15T07:15:26;9.50;99.90
32660;DHT22;19064;47.912;12.308;2022-11-15T07:17:52;9.90;99.90
32660;DHT22;19064;47.912;12.308;2022-11-15T07:20:19;10.00;99.90
32660;DHT22;19064;47.912;12.308;2022-11-15T07:22:46;10.00;99.90
32660;DHT22;19064;47.912;12.308;2022-11-15T07:25:14;9.00;99.90
32660;DHT22;19064;47.912;12.308;2022-11-15T07:27:40;8.40;99.90
32660;DHT22;19064;47.912;12.308;2022-11-15T07:30:08;8.90;99.90
32660;DHT22;19064;47.912;12.308;2022-11-15T07:32:35;10.40;99.90
32660;DHT22;19064;47.912;12.308;2022-11-15T07:35:02;11.80;99.90
32660;DHT22;19064;47.912;12.308;2022-11-15T07:37:28;12.60;99.90
32660;DHT22;19064;47.912;12.308;2022-11-15T07:39:55;12.50;99.90
32660;DHT22;19064;47.912;12.308;2022-11-15T07:42:23;12.60;99.90
32660;DHT22;19064;47.912;12.308;2022-11-15T07:45:08;12.20;99.90
32660;DHT22;19064;47.912;12.308;2022-11-15T07:47:35;12.40;99.90
32660;DHT22;19064;47.912;12.308;2022-11-15T07:50:01;12.30;99.90
32660;DHT22;19064;47.912;12.308;2022-11-15T07:52:28;11.30;99.90
32660;DHT22;19064;47.912;12.308;2022-11-15T07:54:55;10.20;99.90
32660;DHT22;19064;47.912;12.308;2022-11-15T07:57:23;9.20;99.90
32660;DHT22;19064;47.912;12.308;2022-11-15T07:59:50;8.30;99.90
32660;DHT22;19064;47.912;12.308;2022-11-15T08:02:16;7.60;99.90
32660;DHT22;19064;47.912;12.308;2022-11-15T08:04:43;7.20;99.90
32660;DHT22;19064;47.912;12.308;2022-11-15T08:07:10;7.00;99.90
32660;DHT22;19064;47.912;12.308;2022-11-15T08:09:37;7.30;99.90
32660;DHT22;19064;47.912;12.308;2022-11-15T08:12:04;8.60;99.90
32660;DHT22;19064;47.912;12.308;2022-11-15T08:14:32;10.10;99.90
32660;DHT22;19064;47.912;12.308;2022-11-15T08:16:59;11.40;99.90
32660;DHT22;19064;47.912;12.308;2022-11-15T08:19:25;12.30;99.90
32660;DHT22;19064;47.912;12.308;2022-11-15T08:21:52;12.50;99.90
32660;DHT22;19064;47.912;12.308;2022-11-15T08:24:19;12.30;99.90
32660;DHT22;19064;47.912;12.308;2022-11-15T08:26:46;12.40;99.90
32660;DHT22;19064;47.912;12.308;2022-11-15T08:29:13;12.80;99.90
32660;DHT22;19064;47.912;12.308;2022-11-15T08:31:41;13.20;99.90
32660;DHT22;19064;47.912;12.308;2022-11-15T08:34:08;13.90;99.90
32660;DHT22;19064;47.912;12.308;2022-11-15T08:36:35;13.70;99.90
32660;DHT22;19064;47.912;12.308;2022-11-15T08:39:02;13.80;99.90
32660;DHT22;19064;47.912;12.308;2022-11-15T08:41:32;13.80;99.90
32660;DHT22;19064;47.912;12.308;2022-11-15T08:43:58;13.80;99.90
32660;DHT22;19064;47.912;12.308;2022-11-15T08:46:25;14.40;99.90
32660;DHT22;19064;47.912;12.308;2022-11-15T08:48:53;14.50;99.90
32660;DHT22;19064;47.912;12.308;2022-11-15T08:51:20;14.30;99.90
32660;DHT22;19064;47.912;12.308;2022-11-15T08:53:47;14.10;99.90
32660;DHT22;19064;47.912;12.308;2022-11-15T08:56:15;13.90;99.90
32660;DHT22;19064;47.912;12.308;2022-11-15T08:58:42;13.90;99.90
32660;DHT22;19064;47.912;12.308;2022-11-15T09:01:15;13.40;99.90
32660;DHT22;19064;47.912;12.308;2022-11-15T09:03:42;12.30;99.90
32660;DHT22;19064;47.912;12.308;2022-11-15T09:06:10;11.40;99.90
32660;DHT22;19064;47.912;12.308;2022-11-15T09:08:36;10.80;99.90
32660;DHT22;19064;47.912;12.308;2022-11-15T09:11:04;10.40;99.90
32660;DHT22;19064;47.912;12.308;2022-11-15T09:13:31;10.30;99.90
32660;DHT22;19064;47.912;12.308;2022-11-15T09:15:58;9.90;99.90
32660;DHT22;19064;47.912;12.308;2022-11-15T09:18:25;9.70;99.90
32660;DHT22;19064;47.912;12.308;2022-11-15T09:20:55;9.60;99.90
32660;DHT22;19064;47.912;12.308;2022-11-15T09:23:24;9.50;99.90
32660;DHT22;19064;47.912;12.308;2022-11-15T09:25:51;9.60;99.90
32660;DHT22;19064;47.912;12.308;2022-11-15T09:28:18;9.70;99.90
32660;DHT22;19064;47.912;12.308;2022-11-15T09:30:45;9.60;99.90
32660;DHT22;19064;47.912;12.308;2022-11-15T09:33:12;9.70;99.90
32660;DHT22;19064;47.912;12.308;2022-11-15T09:35:39;9.90;99.90
32660;DHT22;19064;47.912;12.308;2022-11-15T09:38:06;10.10;99.90
32660;DHT22;19064;47.912;12.308;2022-11-15T09:40:36;10.20;99.90
32660;DHT22;19064;47.912;12.308;2022-11-15T09:43:28;10.30;99.90
32660;DHT22;19064;47.912;12.308;2022-11-15T09:46:13;10.30;99.90
32660;DHT22;19064;47.912;12.308;2022-11-15T09:48:48;10.30;99.90
32660;DHT22;19064;47.912;12.308;2022-11-15T09:51:24;10.40;99.90
32660;DHT22;19064;47.912;12.308;2022-11-15T09:54:01;10.50;99.90
32660;DHT22;19064;47.912;12.308;2022-11-15T09:56:32;10.70;99.90
32660;DHT22;19064;47.912;12.308;2022-11-15T09:59:22;10.70;99.90
32660;DHT22;19064;47.912;12.308;2022-11-15T10:01:57;10.80;99.90
32660;DHT22;19064;47.912;12.308;2022-11-15T10:04:27;10.80;99.90
32660;DHT22;19064;47.912;12.308;2022-11-15T10:06:58;10.90;99.90
32660;DHT22;19064;47.912;12.308;2022-11-15T10:09:28;11.00;99.90
32660;DHT22;19064;47.912;12.308;2022-11-15T10:11:58;11.10;99.90
32660;DHT22;19064;47.912;12.308;2022-11-15T10:14:27;11.10;99.90
32660;DHT22;19064;47.912;12.308;2022-11-15T10:19:56;11.30;99.90
32660;DHT22;19064;47.912;12.308;2022-11-15T10:22:28;11.30;99.90
32660;DHT22;19064;47.912;12.308;2022-11-15T10:25:11;11.40;99.90
32660;DHT22;19064;47.912;12.308;2022-11-15T10:27:42;11.40;99.90
32660;DHT22;19064;47.912;12.308;2022-11-15T10:30:11;11.40;99.90
32660;DHT22;19064;47.912;12.308;2022-11-15T10:32:40;11.50;99.90
32660;DHT22;19064;47.912;12.308;2022-11-15T10:35:20;11.50;99.90
32660;DHT22;19064;47.912;12.308;2022-11-15T10:37:48;11.60;99.90
32660;DHT22;19064;47.912;12.308;2022-11-15T10:40:18;11.70;99.90
32660;DHT22;19064;47.912;12.308;2022-11-15T10:42:47;11.70;99.90
32660;DHT22;19064;47.912;12.308;2022-11-15T10:45:25;11.70;99.90
32660;DHT22;19064;47.912;12.308;2022-11-15T10:47:52;11.70;99.90
32660;DHT22;19064;47.912;12.308;2022-11-15T10:50:28;11.70;99.90
32660;DHT22;19064;47.912;12.308;2022-11-15T10:52:56;11.80;99.90
32660;DHT22;19064;47.912;12.308;2022-11-15T10:55:26;11.80;99.90
32660;DHT22;19064;47.912;12.308;2022-11-15T10:58:00;11.90;99.90
32660;DHT22;19064;47.912;12.308;2022-11-15T11:00:32;11.80;99.90
32660;DHT22;19064;47.912;12.308;2022-11-15T11:03:01;11.70;99.90
32660;DHT22;19064;47.912;12.308;2022-11-15T11:05:31;11.80;99.90
32660;DHT22;19064;47.912;12.308;2022-11-15T11:08:00;11.90;99.90
32660;DHT22;19064;47.912;12.308;2022-11-15T11:10:28;11.90;99.90
32660;DHT22;19064;47.912;12.308;2022-11-15T11:13:12;11.90;99.90
32660;DHT22;19064;47.912;12.308;2022-11-15T11:15:40;12.00;99.90
32660;DHT22;19064;47.912;12.308;2022-11-15T11:18:15;11.90;99.90
32660;DHT22;19064;47.912;12.308;2022-11-15T11:20:47;12.00;99.90
32660;DHT22;19064;47.912;12.308;2022-11-15T11:23:33;12.00;99.90
32660;DHT22;19064;47.912;12.308;2022-11-15T11:26:15;12.20;99.90
32660;DHT22;19064;47.912;12.308;2022-11-15T11:28:53;12.20;99.90
32660;DHT22;19064;47.912;12.308;2022-11-15T11:31:27;12.30;99.90
32660;DHT22;19064;47.912;12.308;2022-11-15T11:34:02;12.30;99.90
32660;DHT22;19064;47.912;12.308;2022-11-15T11:36:38;12.40;99.90
32660;DHT22;19064;47.912;12.308;2022-11-15T11:39:18;12.40;99.90
32660;DHT22;19064;47.912;12.308;2022-11-15T11:41:57;12.40;99.90
32660;DHT22;19064;47.912;12.308;2022-11-15T11:44:40;12.40;99.90
32660;DHT22;19064;47.912;12.308;2022-11-15T11:47:19;12.40;99.90
32660;DHT22;19064;47.912;12.308;2022-11-15T11:49:50;12.50;99.90
32660;DHT22;19064;47.912;12.308;2022-11-15T11:52:22;12.60;99.90
32660;DHT22;19064;47.912;12.308;2022-11-15T11:54:59;12.70;99.90
32660;DHT22;19064;47.912;12.308;2022-11-15T11:57:36;12.80;99.90
32660;DHT22;19064;47.912;12.308;2022-11-15T12:00:16;12.70;99.90
32660;DHT22;19064;47.912;12.308;2022-11-15T12:02:49;12.70;99.90
32660;DHT22;19064;47.912;12.308;2022-11-15T12:05:22;12.70;99.90
32660;DHT22;19064;47.912;12.308;2022-11-15T12:07:56;12.70;99.90
32660;DHT22;19064;47.912;12.308;2022-11-15T12:10:29;12.70;99.90
32660;DHT22;19064;47.912;12.308;2022-11-15T12:13:02;12.90;99.90
32660;DHT22;19064;47.912;12.308;2022-11-15T12:15:35;12.80;99.90
32660;DHT22;19064;47.912;12.308;2022-11-15T12:18:04;12.80;99.90
32660;DHT22;19064;47.912;12.308;2022-11-15T12:20:40;12.80;99.90
32660;DHT22;19064;47.912;12.308;2022-11-15T12:23:12;12.90;99.90
32660;DHT22;19064;47.912;12.308;2022-11-15T12:25:47;13.00;99.90
32660;DHT22;19064;47.912;12.308;2022-11-15T12:28:19;12.90;99.90
32660;DHT22;19064;47.912;12.308;2022-11-15T12:30:51;12.90;99.90
32660;DHT22;19064;47.912;12.308;2022-11-15T12:33:31;12.90;99.90
32660;DHT22;19064;47.912;12.308;2022-11-15T12:36:00;13.00;99.90
32660;DHT22;19064;47.912;12.308;2022-11-15T12:38:50;13.00;99.90
32660;DHT22;19064;47.912;12.308;2022-11-15T12:41:19;13.00;99.90
32660;DHT22;19064;47.912;12.308;2022-11-15T12:43:47;13.20;99.90
32660;DHT22;19064;47.912;12.308;2022-11-15T12:46:22;13.20;99.90
32660;DHT22;19064;47.912;12.308;2022-11-15T12:48:54;13.20;99.90
32660;DHT22;19064;47.912;12.308;2022-11-15T12:57:35;13.20;99.90
32660;DHT22;19064;47.912;12.308;2022-11-15T13:03:27;13.10;99.90
32660;DHT22;19064;47.912;12.308;2022-11-15T13:06:09;13.10;99.90
32660;DHT22;19064;47.912;12.308;2022-11-15T13:08:45;13.10;99.90
32660;DHT22;19064;47.912;12.308;2022-11-15T13:11:42;13.10;99.90
32660;DHT22;19064;47.912;12.308;2022-11-15T13:14:43;13.10;99.90
32660;DHT22;19064;47.912;12.308;2022-11-15T13:17:29;12.90;99.90
32660;DHT22;19064;47.912;12.308;2022-11-15T13:20:02;13.00;99.90
32660;DHT22;19064;47.912;12.308;2022-11-15T13:22:38;12.90;99.90
32660;DHT22;19064;47.912;12.308;2022-11-15T13:25:51;13.00;99.90
32660;DHT22;19064;47.912;12.308;2022-11-15T13:28:29;13.00;99.90
32660;DHT22;19064;47.912;12.308;2022-11-15T13:30:59;12.90;99.90
32660;DHT22;19064;47.912;12.308;2022-11-15T13:33:32;12.90;99.90
32660;DHT22;19064;47.912;12.308;2022-11-15T13:36:03;12.90;99.90
32660;DHT22;19064;47.912;12.308;2022-11-15T13:38:31;12.80;99.90
32660;DHT22;19064;47.912;12.308;2022-11-15T13:41:00;12.80;99.90
32660;DHT22;19064;47.912;12.308;2022-11-15T13:43:36;12.80;99.90
32660;DHT22;19064;47.912;12.308;2022-11-15T13:46:11;12.70;99.90
32660;DHT22;19064;47.912;12.308;2022-11-15T13:48:38;12.70;99.90
32660;DHT22;19064;47.912;12.308;2022-11-15T13:51:12;12.60;99.90
32660;DHT22;19064;47.912;12.308;2022-11-15T13:53:45;12.60;99.90
32660;DHT22;19064;47.912;12.308;2022-11-15T13:56:13;12.50;99.90
32660;DHT22;19064;47.912;12.308;2022-11-15T13:58:41;12.40;99.90
32660;DHT22;19064;47.912;12.308;2022-11-15T14:01:14;12.40;99.90
32660;DHT22;19064;47.912;12.308;2022-11-15T14:03:47;12.30;99.90
32660;DHT22;19064;47.912;12.308;2022-11-15T14:06:18;12.30;99.90
32660;DHT22;19064;47.912;12.308;2022-11-15T14:09:15;12.40;99.90
32660;DHT22;19064;47.912;12.308;2022-11-15T14:11:51;12.30;99.90
32660;DHT22;19064;47.912;12.308;2022-11-15T14:14:20;12.30;99.90
32660;DHT22;19064;47.912;12.308;2022-11-15T14:16:50;12.30;99.90
32660;DHT22;19064;47.912;12.308;2022-11-15T14:19:35;12.30;99.90
32660;DHT22;19064;47.912;12.308;2022-11-15T14:22:12;12.30;99.90
32660;DHT22;19064;47.912;12.308;2022-11-15T14:24:41;12.20;99.90
32660;DHT22;19064;47.912;12.308;2022-11-15T14:27:20;12.10;99.90
32660;DHT22;19064;47.912;12.308;2022-11-15T14:29:47;12.00;99.90
32660;DHT22;19064;47.912;12.308;2022-11-15T14:32:16;11.90;99.90
32660;DHT22;19064;47.912;12.308;2022-11-15T14:34:44;11.90;99.90
32660;DHT22;19064;47.912;12.308;2022-11-15T14:37:20;11.80;99.90
32660;DHT22;19064;47.912;12.308;2022-11-15T14:39:47;11.80;99.90
32660;DHT22;19064;47.912;12.308;2022-11-15T14:42:14;11.70;99.90
32660;DHT22;19064;47.912;12.308;2022-11-15T14:44:41;11.60;99.90
32660;DHT22;19064;47.912;12.308;2022-11-15T14:47:07;11.60;99.90
32660;DHT22;19064;47.912;12.308;2022-11-15T14:49:34;11.50;99.90
32660;DHT22;19064;47.912;12.308;2022-11-15T14:52:01;11.50;99.90
32660;DHT22;19064;47.912;12.308;2022-11-15T14:54:29;11.40;99.90
32660;DHT22;19064;47.912;12.308;2022-11-15T14:56:59;11.20;99.90
32660;DHT22;19064;47.912;12.308;2022-11-15T14:59:26;11.00;99.90
32660;DHT22;19064;47.912;12.308;2022-11-15T15:01:53;10.90;99.90
32660;DHT22;19064;47.912;12.308;2022-11-15T15:04:19;10.80;99.90
32660;DHT22;19064;47.912;12.308;2022-11-15T15:06:46;10.70;99.90
32660;DHT22;19064;47.912;12.308;2022-11-15T15:09:13;10.60;99.90
32660;DHT22;19064;47.912;12.308;2022-11-15T15:11:41;10.50;99.90
32660;DHT22;19064;47.912;12.308;2022-11-15T15:14:08;10.40;99.90
32660;DHT22;19064;47.912;12.308;2022-11-15T15:16:34;10.30;99.90
32660;DHT22;19064;47.912;12.308;2022-11-15T15:19:01;10.10;99.90
32660;DHT22;19064;47.912;12.308;2022-11-15T15:21:28;10.00;99.90
32660;DHT22;19064;47.912;12.308;2022-11-15T15:23:56;9.90;99.90
32660;DHT22;19064;47.912;12.308;2022-11-15T15:26:23;9.80;99.90
32660;DHT22;19064;47.912;12.308;2022-11-15T15:28:52;9.60;99.90
32660;DHT22;19064;47.912;12.308;2022-11-15T15:31:19;9.40;99.90
32660;DHT22;19064;47.912;12.308;2022-11-15T15:33:45;9.30;99.90
32660;DHT22;19064;47.912;12.308;2022-11-15T15:36:13;9.10;99.90
32660;DHT22;19064;47.912;12.308;2022-11-15T15:38:40;9.10;99.90
32660;DHT22;19064;47.912;12.308;2022-11-15T15:41:10;9.00;99.90
32660;DHT22;19064;47.912;12.308;2022-11-15T15:43:36;9.00;99.90
32660;DHT22;19064;47.912;12.308;2022-11-15T15:46:08;9.00;99.90
32660;DHT22;19064;47.912;12.308;2022-11-15T15:48:35;9.00;99.90
32660;DHT22;19064;47.912;12.308;2022-11-15T15:51:02;9.00;99.90
32660;DHT22;19064;47.912;12.308;2022-11-15T15:53:29;8.80;99.90
32660;DHT22;19064;47.912;12.308;2022-11-15T15:55:56;8.70;99.90
32660;DHT22;19064;47.912;12.308;2022-11-15T15:58:23;8.70;99.90
32660;DHT22;19064;47.912;12.308;2022-11-15T16:00:50;8.60;99.90
32660;DHT22;19064;47.912;12.308;2022-11-15T16:03:18;8.40;99.90
32660;DHT22;19064;47.912;12.308;2022-11-15T16:05:45;8.40;99.90